Time;durP1;ratioP1;P1;durP2;ratioP2;P2;SDS_P1;SDS_P2;PMS_P1;PMS_P2;Temp;Humidity;BMP_temperature;BMP_pressure;BME280_temperature;BME280_humidity;BME280_pressure;Samples;Min_cycle;Max_cycle;Signal;HPM_P1;HPM_P2
2023/10/28 00:00:06;;;;;;;0.93;0.70;;;;;;;11.77;100.00;98512.59;6209744;28;20432;-73
2023/10/28 00:03:07;;;;;;;1.70;1.02;;;;;;;11.75;100.00;98512.72;6202382;28;20050;-74
2023/10/28 00:06:09;;;;;;;1.65;0.80;;;;;;;11.83;100.00;98515.47;6210065;28;20058;-73
2023/10/28 00:09:10;;;;;;;0.65;0.65;;;;;;;11.81;100.00;98511.38;6206064;28;20042;-73
2023/10/28 00:12:12;;;;;;;2.20;0.80;;;;;;;11.85;100.00;98526.63;6216939;28;20057;-73
2023/10/28 00:15:13;;;;;;;;;;;;;;;11.79;100.00;98528.97;6216448;28;20082;-73
2023/10/28 00:18:14;;;;;;;0.88;0.70;;;;;;;11.76;100.00;98524.03;6206848;28;20380;-73
2023/10/28 00:21:17;;;;;;;1.15;0.70;;;;;;;11.72;100.00;98523.47;6215825;28;20389;-74
2023/10/28 00:24:18;;;;;;;1.20;0.88;;;;;;;11.74;100.00;98533.81;6204765;28;20532;-73
2023/10/28 00:27:19;;;;;;;1.65;0.80;;;;;;;11.69;100.00;98528.97;6202792;28;20112;-73
2023/10/28 00:30:23;;;;;;;2.65;0.90;;;;;;;11.69;100.00;98535.03;6199779;28;20620;-74
2023/10/28 00:33:26;;;;;;;0.98;0.80;;;;;;;11.64;100.00;98534.59;6195177;28;20053;-73
2023/10/28 00:36:27;;;;;;;0.68;0.40;;;;;;;11.68;100.00;98529.94;6215198;28;20054;-73
2023/10/28 00:39:28;;;;;;;0.50;0.50;;;;;;;11.63;100.00;98534.75;6208254;28;20072;-73
2023/10/28 00:42:29;;;;;;;1.40;0.73;;;;;;;11.60;100.00;98537.63;6208485;28;20089;-74
2023/10/28 00:45:32;;;;;;;1.98;0.60;;;;;;;11.62;100.00;98543.56;6213527;28;20065;-73
2023/10/28 00:48:34;;;;;;;0.60;0.60;;;;;;;11.52;100.00;98540.94;6212779;28;20042;-73
2023/10/28 00:51:35;;;;;;;1.85;0.63;;;;;;;11.45;100.00;98553.72;6213521;28;20061;-73
2023/10/28 00:54:37;;;;;;;1.58;0.50;;;;;;;11.57;100.00;98564.03;6216270;28;20054;-73
2023/10/28 00:57:39;;;;;;;2.25;0.60;;;;;;;11.58;100.00;98563.06;6203059;28;20081;-73
2023/10/28 01:00:40;;;;;;;1.35;0.60;;;;;;;11.57;100.00;98556.19;6216762;28;20613;-73
2023/10/28 01:03:42;;;;;;;0.57;0.40;;;;;;;11.63;99.60;98582.59;6217420;28;20473;-73
2023/10/28 01:06:43;;;;;;;1.50;0.40;;;;;;;11.47;99.99;98582.31;6219649;28;20050;-73
2023/10/28 01:09:46;;;;;;;0.70;0.40;;;;;;;11.56;99.69;98591.94;6216653;28;20153;-73
2023/10/28 01:12:48;;;;;;;2.58;0.70;;;;;;;11.69;98.87;98595.13;6216826;28;20053;-73
2023/10/28 01:15:51;;;;;;;0.80;0.47;;;;;;;11.76;98.53;98605.03;6206498;28;20058;-73
2023/10/28 01:18:55;;;;;;;1.10;0.50;;;;;;;11.62;98.64;98587.97;6209993;28;20049;-74
2023/10/28 01:21:56;;;;;;;2.58;0.70;;;;;;;11.51;99.15;98596.75;6208885;28;20050;-73
2023/10/28 01:24:56;;;;;;;0.47;0.40;;;;;;;11.60;98.05;98606.38;6217691;28;20065;-73
2023/10/28 01:27:58;;;;;;;1.00;0.80;;;;;;;11.53;98.93;98612.28;6212618;28;20053;-74
2023/10/28 01:31:00;;;;;;;1.60;0.80;;;;;;;11.62;97.89;98614.91;6202487;28;20421;-73
2023/10/28 01:34:03;;;;;;;1.95;0.47;;;;;;;11.66;98.06;98605.03;6200459;28;20194;-73
2023/10/28 01:37:04;;;;;;;0.70;0.35;;;;;;;11.59;98.33;98609.97;6204582;28;20087;-73
2023/10/28 01:40:13;;;;;;;3.65;0.65;;;;;;;11.64;99.05;98620.81;6204048;28;20046;-73
2023/10/28 01:43:14;;;;;;;2.08;0.68;;;;;;;11.45;99.59;98626.03;6199684;28;20083;-73
2023/10/28 01:46:16;;;;;;;0.70;0.50;;;;;;;11.43;100.00;98625.34;6215759;28;20054;-73
2023/10/28 01:49:16;;;;;;;1.30;0.68;;;;;;;11.42;100.00;98631.50;6211663;28;20417;-73
2023/10/28 01:52:18;;;;;;;1.17;0.70;;;;;;;11.22;100.00;98638.44;6198702;28;20062;-73
2023/10/28 01:55:20;;;;;;;;;;;;;;;11.24;100.00;98631.31;6206288;28;20474;-73
2023/10/28 01:58:20;;;;;;;2.38;0.82;;;;;;;11.16;100.00;98631.13;6210845;28;20359;-73
2023/10/28 02:01:25;;;;;;;0.40;0.40;;;;;;;11.23;100.00;98643.53;6197865;28;20072;-73
2023/10/28 02:04:26;;;;;;;0.60;0.60;;;;;;;11.08;100.00;98655.31;6208147;28;20133;-73
2023/10/28 02:07:27;;;;;;;3.47;0.70;;;;;;;11.12;100.00;98641.03;6200308;28;20054;-73
2023/10/28 02:10:28;;;;;;;2.23;0.60;;;;;;;11.08;100.00;98650.91;6208046;28;20129;-73
2023/10/28 02:13:29;;;;;;;1.80;0.70;;;;;;;11.08;100.00;98643.06;6217325;28;20291;-74
2023/10/28 02:16:30;;;;;;;1.27;0.55;;;;;;;11.21;100.00;98649.84;6199442;28;20057;-73
2023/10/28 02:19:31;;;;;;;6.60;0.85;;;;;;;11.23;100.00;98648.75;6210878;28;20046;-73
2023/10/28 02:22:32;;;;;;;1.42;0.63;;;;;;;11.18;100.00;98647.50;6204665;28;20130;-73
2023/10/28 02:25:35;;;;;;;0.60;0.57;;;;;;;11.17;100.00;98648.47;6202468;28;21605;-74
2023/10/28 02:28:38;;;;;;;5.10;0.77;;;;;;;11.22;100.00;98654.94;6202273;28;20493;-72
2023/10/28 02:31:39;;;;;;;0.70;0.52;;;;;;;11.23;100.00;98664.41;6213943;28;20054;-72
2023/10/28 02:34:43;;;;;;;3.05;0.63;;;;;;;11.24;100.00;98660.03;6209912;28;20050;-72
2023/10/28 02:37:44;;;;;;;1.05;0.70;;;;;;;11.21;100.00;98666.34;6208008;28;20062;-72
2023/10/28 02:40:48;;;;;;;1.77;0.68;;;;;;;11.15;100.00;98669.47;6212776;28;20576;-72
2023/10/28 02:43:49;;;;;;;1.00;0.80;;;;;;;11.23;100.00;98672.25;6205885;28;20118;-74
2023/10/28 02:46:49;;;;;;;2.08;0.60;;;;;;;11.21;100.00;98675.97;6195694;28;20395;-74
2023/10/28 02:49:51;;;;;;;0.68;0.65;;;;;;;11.18;100.00;98679.66;6199701;28;20078;-73
2023/10/28 02:52:53;;;;;;;1.20;0.88;;;;;;;11.14;100.00;98690.47;6207515;28;20090;-73
2023/10/28 02:55:54;;;;;;;2.17;0.88;;;;;;;11.20;100.00;98695.19;6212807;28;20053;-74
2023/10/28 02:58:55;;;;;;;0.77;0.77;;;;;;;11.18;100.00;98692.72;6211721;28;20077;-73
2023/10/28 03:01:55;;;;;;;1.13;0.68;;;;;;;11.32;100.00;98690.72;6196896;28;20540;-73
2023/10/28 03:04:57;;;;;;;0.93;0.82;;;;;;;11.38;100.00;98700.63;6219007;28;20062;-73
2023/10/28 03:07:58;;;;;;;3.28;0.50;;;;;;;11.23;100.00;98708.81;6219623;28;20053;-74
2023/10/28 03:11:00;;;;;;;7.10;0.90;;;;;;;11.35;100.00;98704.34;6218683;28;20436;-74
2023/10/28 03:14:01;;;;;;;2.77;0.70;;;;;;;11.23;100.00;98698.38;6196783;28;20090;-74
2023/10/28 03:17:03;;;;;;;3.17;0.73;;;;;;;11.36;100.00;98705.16;6194253;28;20345;-74
2023/10/28 03:20:05;;;;;;;0.95;0.70;;;;;;;11.26;100.00;98710.31;6195669;28;20049;-74
2023/10/28 03:23:07;;;;;;;1.15;0.63;;;;;;;11.35;100.00;98727.03;6217597;28;20085;-74
2023/10/28 03:26:08;;;;;;;1.03;0.70;;;;;;;11.29;100.00;98723.13;6219456;28;20061;-74
2023/10/28 03:29:09;;;;;;;0.55;0.52;;;;;;;11.40;100.00;98724.81;6209627;28;20047;-74
2023/10/28 03:32:14;;;;;;;1.70;0.60;;;;;;;11.43;100.00;98727.19;6195204;28;20064;-74
2023/10/28 03:35:14;;;;;;;7.90;1.02;;;;;;;11.40;100.00;98733.47;6193909;28;20565;-74
2023/10/28 03:38:15;;;;;;;1.00;0.68;;;;;;;11.46;100.00;98737.34;6193411;28;20050;-74
2023/10/28 03:41:16;;;;;;;3.97;1.27;;;;;;;11.33;100.00;98742.00;6209554;28;20546;-73
2023/10/28 03:44:17;;;;;;;0.93;0.60;;;;;;;11.43;100.00;98758.53;6195110;28;20054;-74
2023/10/28 03:47:18;;;;;;;1.50;0.88;;;;;;;11.28;100.00;98756.25;6194723;28;20066;-74
2023/10/28 03:50:20;;;;;;;0.88;0.73;;;;;;;11.42;100.00;98767.31;6195297;28;20381;-73
2023/10/28 03:53:20;;;;;;;1.05;0.82;;;;;;;11.28;100.00;98781.53;6194825;28;20372;-74
2023/10/28 03:56:21;;;;;;;0.80;0.80;;;;;;;11.44;100.00;98778.44;6216639;28;20054;-73
2023/10/28 03:59:22;;;;;;;1.33;0.55;;;;;;;11.37;100.00;98778.16;6217563;28;20137;-74
2023/10/28 04:02:23;;;;;;;1.25;0.65;;;;;;;11.45;100.00;98780.94;6193775;28;20133;-73
2023/10/28 04:05:24;;;;;;;1.15;0.77;;;;;;;11.35;100.00;98774.03;6193633;28;20059;-74
2023/10/28 04:08:25;;;;;;;0.80;0.75;;;;;;;11.36;100.00;98783.50;6193635;28;20047;-74
2023/10/28 04:11:26;;;;;;;0.60;0.60;;;;;;;11.45;100.00;98778.31;6195670;28;20061;-74
2023/10/28 04:14:26;;;;;;;1.67;0.60;;;;;;;11.43;100.00;98774.19;6197577;28;20550;-74
2023/10/28 04:17:31;;;;;;;2.15;0.80;;;;;;;11.56;100.00;98787.03;6208739;28;20080;-74
2023/10/28 04:20:35;;;;;;;0.75;0.60;;;;;;;11.39;100.00;98788.47;6203247;28;20050;-73
2023/10/28 04:23:36;;;;;;;0.98;0.88;;;;;;;11.44;100.00;98787.09;6209858;28;20099;-74
2023/10/28 04:26:37;;;;;;;1.77;0.80;;;;;;;11.47;100.00;98788.66;6199112;28;20133;-74
2023/10/28 04:29:38;;;;;;;1.45;1.10;;;;;;;11.45;100.00;98785.34;6222894;28;20058;-74
2023/10/28 04:32:39;;;;;;;3.92;1.13;;;;;;;11.53;100.00;98793.34;6221616;28;20058;-74
2023/10/28 04:35:43;;;;;;;1.75;1.10;;;;;;;11.48;100.00;98788.50;6211557;28;20091;-73
2023/10/28 04:38:44;;;;;;;1.67;0.88;;;;;;;11.53;100.00;98798.59;6198024;28;20062;-74
2023/10/28 04:41:44;;;;;;;1.38;0.80;;;;;;;11.68;100.00;98786.00;6208452;28;20100;-74
2023/10/28 04:44:48;;;;;;;1.58;0.80;;;;;;;11.45;100.00;98790.56;6222948;28;20089;-74
2023/10/28 04:47:50;;;;;;;0.93;0.93;;;;;;;11.40;100.00;98790.94;6222196;28;20081;-74
2023/10/28 04:50:50;;;;;;;0.93;0.80;;;;;;;11.48;100.00;98779.84;6222365;28;20061;-74
2023/10/28 04:53:51;;;;;;;0.65;0.65;;;;;;;11.47;100.00;98781.63;6221047;28;20405;-74
2023/10/28 04:56:53;;;;;;;1.67;0.90;;;;;;;11.44;100.00;98784.50;6221037;28;20065;-74
2023/10/28 04:59:54;;;;;;;0.90;0.73;;;;;;;11.54;100.00;98789.78;6220920;28;20098;-74
2023/10/28 05:02:55;;;;;;;2.85;0.82;;;;;;;11.45;100.00;98794.00;6217772;28;20059;-74
2023/10/28 05:05:57;;;;;;;5.07;1.15;;;;;;;11.48;100.00;98795.53;6216020;28;20080;-74
2023/10/28 05:08:58;;;;;;;16.17;1.52;;;;;;;11.56;100.00;98805.31;6207197;28;20057;-74
2023/10/28 05:12:00;;;;;;;1.00;0.90;;;;;;;11.50;100.00;98814.50;6218380;28;20375;-74
2023/10/28 05:15:02;;;;;;;1.02;0.90;;;;;;;11.49;100.00;98818.09;6203840;28;20131;-75
2023/10/28 05:18:03;;;;;;;1.95;1.20;;;;;;;11.45;100.00;98829.75;6198559;28;20454;-74
2023/10/28 05:21:04;;;;;;;1.85;0.80;;;;;;;11.52;100.00;98824.81;6295448;27;20395;-73
2023/10/28 05:24:05;;;;;;;1.63;0.97;;;;;;;11.60;100.00;98838.06;6197090;28;20107;-73
2023/10/28 05:27:06;;;;;;;1.30;0.98;;;;;;;11.67;100.00;98837.44;6197777;28;20313;-73
2023/10/28 05:30:10;;;;;;;1.83;1.10;;;;;;;11.74;100.00;98857.81;6205071;28;20042;-73
2023/10/28 05:33:11;;;;;;;0.90;0.70;;;;;;;11.60;100.00;98851.13;6208512;28;20057;-73
2023/10/28 05:36:12;;;;;;;4.30;1.30;;;;;;;11.64;100.00;98858.56;6196417;28;20058;-73
2023/10/28 05:39:13;;;;;;;1.77;1.40;;;;;;;11.62;100.00;98870.13;6194672;28;20076;-73
2023/10/28 05:42:17;;;;;;;2.88;1.63;;;;;;;11.77;100.00;98873.22;6209037;28;20045;-73
2023/10/28 05:45:18;;;;;;;1.65;1.17;;;;;;;11.68;100.00;98872.22;6220612;28;20102;-73
2023/10/28 05:48:19;;;;;;;2.67;1.42;;;;;;;11.80;100.00;98881.63;6211485;28;20054;-74
2023/10/28 05:51:20;;;;;;;1.48;1.30;;;;;;;11.79;100.00;98890.41;6207897;28;20516;-73
2023/10/28 05:54:23;;;;;;;1.70;1.15;;;;;;;11.82;100.00;98899.78;6220243;28;20046;-73
2023/10/28 05:57:26;;;;;;;2.20;1.13;;;;;;;11.93;100.00;98912.00;6220326;28;20505;-73
2023/10/28 06:00:28;;;;;;;2.75;1.20;;;;;;;12.02;100.00;98908.56;6200373;28;20037;-73
2023/10/28 06:03:29;;;;;;;2.17;1.48;;;;;;;12.02;100.00;98914.63;6204600;28;20050;-73
2023/10/28 06:06:31;;;;;;;1.15;1.05;;;;;;;12.27;100.00;98915.16;6213290;28;20052;-73
2023/10/28 06:09:33;;;;;;;1.58;1.00;;;;;;;12.27;100.00;98921.22;6215853;28;20077;-73
2023/10/28 06:12:35;;;;;;;3.03;1.17;;;;;;;12.34;100.00;98921.53;6214826;28;20081;-74
2023/10/28 06:15:37;;;;;;;0.82;0.75;;;;;;;12.30;100.00;98920.13;6216915;28;20508;-73
2023/10/28 06:18:38;;;;;;;2.67;1.52;;;;;;;12.38;100.00;98919.47;6201195;28;20111;-74
2023/10/28 06:21:41;;;;;;;2.78;1.33;;;;;;;12.28;100.00;98925.47;6198341;28;20077;-73
2023/10/28 06:24:44;;;;;;;1.88;1.23;;;;;;;12.22;100.00;98938.25;6199621;28;20482;-74
2023/10/28 06:27:45;;;;;;;1.45;1.27;;;;;;;12.23;100.00;98937.28;6199052;28;20042;-73
2023/10/28 06:30:48;;;;;;;4.47;1.70;;;;;;;12.16;100.00;98929.16;6199628;28;20057;-73
2023/10/28 06:33:49;;;;;;;2.30;1.50;;;;;;;12.42;100.00;98942.63;6202142;28;20054;-74
2023/10/28 06:36:49;;;;;;;1.95;1.48;;;;;;;12.46;100.00;98944.00;6210059;28;20057;-74
2023/10/28 06:39:51;;;;;;;2.13;1.35;;;;;;;12.65;100.00;98953.69;6215132;28;20072;-74
2023/10/28 06:42:51;;;;;;;2.75;1.40;;;;;;;12.93;100.00;98967.00;6218992;28;20050;-74
2023/10/28 06:45:53;;;;;;;1.88;1.20;;;;;;;13.01;100.00;98964.53;6204743;28;20061;-74
2023/10/28 06:48:54;;;;;;;1.33;1.08;;;;;;;13.16;100.00;98969.34;6297262;28;20068;-74
2023/10/28 06:51:54;;;;;;;1.33;1.17;;;;;;;13.13;100.00;98967.00;6201048;28;20564;-73
2023/10/28 06:54:57;;;;;;;1.88;1.27;;;;;;;13.07;100.00;98971.00;6198857;28;20057;-74
2023/10/28 06:57:59;;;;;;;1.38;1.15;;;;;;;13.08;100.00;98983.97;6204848;28;20050;-74
2023/10/28 07:01:00;;;;;;;1.37;1.20;;;;;;;13.10;100.00;98986.44;6256970;28;20489;-74
2023/10/28 07:04:01;;;;;;;1.40;1.30;;;;;;;13.31;100.00;98988.97;6232357;28;20054;-73
2023/10/28 07:07:02;;;;;;;1.77;1.27;;;;;;;13.58;100.00;98987.47;6222941;28;20460;-74
2023/10/28 07:10:04;;;;;;;0.95;0.93;;;;;;;13.40;100.00;98995.19;6345786;28;20483;-73
2023/10/28 07:13:05;;;;;;;2.03;1.40;;;;;;;13.59;99.96;99000.44;6227789;28;20053;-74
2023/10/28 07:16:06;;;;;;;1.20;1.10;;;;;;;13.75;100.00;98994.63;6243119;28;20197;-74
2023/10/28 07:19:09;;;;;;;7.20;1.42;;;;;;;13.90;100.00;99010.75;6217623;28;20098;-74
2023/10/28 07:22:10;;;;;;;3.08;1.15;;;;;;;13.97;99.16;99001.34;6216305;28;20046;-74
2023/10/28 07:25:11;;;;;;;3.55;1.23;;;;;;;14.09;98.83;99013.34;6198980;28;20058;-74
2023/10/28 07:28:14;;;;;;;2.10;1.30;;;;;;;14.39;98.37;99016.72;6211884;28;20049;-74
2023/10/28 07:31:16;;;;;;;1.30;1.20;;;;;;;14.49;96.62;99022.75;6203564;28;20058;-74
2023/10/28 07:34:18;;;;;;;1.50;1.20;;;;;;;14.68;95.32;99031.53;6210985;28;20111;-74
2023/10/28 07:37:19;;;;;;;1.67;1.40;;;;;;;14.81;95.63;99034.69;6300357;28;20488;-73
2023/10/28 07:40:20;;;;;;;2.75;1.10;;;;;;;15.02;94.34;99026.56;6210943;28;20060;-73
2023/10/28 07:43:21;;;;;;;2.78;1.00;;;;;;;15.14;93.54;99037.69;6193136;28;20456;-73
2023/10/28 07:46:26;;;;;;;1.27;0.82;;;;;;;15.09;91.46;99051.28;6197031;28;20050;-73
2023/10/28 07:49:27;;;;;;;1.45;0.93;;;;;;;15.25;90.79;99053.22;6199104;28;20050;-73
2023/10/28 07:52:30;;;;;;;8.90;1.20;;;;;;;15.30;89.64;99048.38;6197344;28;20084;-73
2023/10/28 07:55:32;;;;;;;3.28;1.42;;;;;;;15.57;90.40;99046.66;6213553;28;20414;-74
2023/10/28 07:58:36;;;;;;;8.13;1.50;;;;;;;15.56;89.86;99054.69;6221187;28;20046;-74
2023/10/28 08:01:39;;;;;;;1.52;0.98;;;;;;;15.49;88.71;99052.66;6222129;28;20050;-74
2023/10/28 08:04:40;;;;;;;2.10;0.93;;;;;;;15.50;87.68;99059.59;6202030;28;20051;-74
2023/10/28 08:07:42;;;;;;;1.67;1.08;;;;;;;15.74;87.91;99052.91;6202801;28;20134;-73
2023/10/28 08:10:45;;;;;;;1.03;0.83;;;;;;;15.68;87.74;99053.50;6218169;28;20046;-73
2023/10/28 08:13:48;;;;;;;2.20;1.30;;;;;;;15.82;88.06;99071.41;6197938;28;20284;-74
2023/10/28 08:16:49;;;;;;;3.63;1.17;;;;;;;15.88;88.42;99072.63;6217190;28;20551;-74
2023/10/28 08:19:50;;;;;;;2.33;1.00;;;;;;;16.21;87.33;99067.59;6220840;28;20050;-73
2023/10/28 08:22:53;;;;;;;1.83;1.10;;;;;;;16.08;86.84;99078.50;6221002;28;20413;-74
2023/10/28 08:25:53;;;;;;;2.15;0.70;;;;;;;16.06;87.04;99075.22;6220858;28;20463;-73
2023/10/28 08:28:54;;;;;;;0.85;0.77;;;;;;;16.11;87.72;99072.97;6217094;28;20050;-74
2023/10/28 08:31:56;;;;;;;1.95;0.88;;;;;;;16.21;88.54;99078.97;6206105;28;20497;-75
2023/10/28 08:34:57;;;;;;;1.05;0.80;;;;;;;16.34;86.54;99078.53;6202023;28;20587;-73
2023/10/28 08:37:59;;;;;;;2.28;0.93;;;;;;;16.47;87.78;99086.03;6197305;28;20058;-73
2023/10/28 08:41:02;;;;;;;2.03;1.30;;;;;;;16.42;87.71;99094.38;6196129;28;20056;-73
2023/10/28 08:44:06;;;;;;;1.52;0.93;;;;;;;16.40;86.42;99099.00;6208695;28;20050;-73
2023/10/28 08:47:06;;;;;;;1.23;0.90;;;;;;;16.54;86.55;99097.59;6221479;28;20045;-73
2023/10/28 08:50:09;;;;;;;1.55;0.90;;;;;;;16.61;87.01;99109.16;6218652;28;20053;-73
2023/10/28 08:53:15;;;;;;;0.90;0.90;;;;;;;16.55;85.98;99122.13;6204746;28;20054;-73
2023/10/28 08:56:19;;;;;;;2.40;0.90;;;;;;;16.80;85.26;99129.22;6195170;28;20050;-74
2023/10/28 08:59:20;;;;;;;1.92;1.00;;;;;;;16.88;86.39;99125.81;6196878;28;20436;-73
2023/10/28 09:02:24;;;;;;;1.13;0.90;;;;;;;17.27;85.31;99127.97;6210137;28;20086;-73
2023/10/28 09:05:26;;;;;;;1.42;1.00;;;;;;;17.43;83.17;99140.38;6220232;28;20098;-73
2023/10/28 09:08:27;;;;;;;3.25;1.05;;;;;;;17.35;81.36;99143.00;6226820;28;20129;-73
2023/10/28 09:11:28;;;;;;;4.72;2.13;;;;;;;17.36;80.04;99152.53;6209296;28;20459;-73
2023/10/28 09:14:31;;;;;;;1.08;0.82;;;;;;;17.33;80.93;99151.88;6203347;28;20058;-73
2023/10/28 09:17:33;;;;;;;3.03;1.30;;;;;;;17.38;81.05;99169.03;6211174;28;20542;-73
2023/10/28 09:20:37;;;;;;;1.70;1.17;;;;;;;17.65;81.44;99154.78;6213742;28;20099;-74
2023/10/28 09:23:39;;;;;;;3.05;1.40;;;;;;;18.20;79.34;99169.25;6214848;28;20050;-75
2023/10/28 09:26:40;;;;;;;4.03;1.70;;;;;;;18.10;76.94;99174.72;6216911;28;20050;-75
2023/10/28 09:29:41;;;;;;;1.50;1.00;;;;;;;18.11;75.97;99178.97;6216725;28;20046;-73
2023/10/28 09:32:42;;;;;;;4.07;1.73;;;;;;;18.36;74.39;99177.16;6220694;28;20143;-73
2023/10/28 09:35:45;;;;;;;3.80;1.83;;;;;;;18.33;73.69;99167.78;6202167;28;20054;-73
2023/10/28 09:38:47;;;;;;;3.05;2.03;;;;;;;17.97;73.43;99169.88;6204424;28;20257;-73
2023/10/28 09:41:47;;;;;;;3.45;1.30;;;;;;;18.20;73.52;99169.25;6214144;28;20498;-73
2023/10/28 09:44:48;;;;;;;6.20;2.58;;;;;;;18.09;72.81;99173.84;6197463;28;20413;-74
2023/10/28 09:47:58;;;;;;;11.70;4.07;;;;;;;17.81;72.47;99177.72;6199738;28;20197;-74
2023/10/28 09:50:58;;;;;;;4.22;1.65;;;;;;;17.67;71.85;99174.75;6205913;28;20563;-75
2023/10/28 09:54:08;;;;;;;5.47;1.20;;;;;;;17.79;72.56;99171.78;6208886;28;20074;-74
2023/10/28 09:57:10;;;;;;;5.95;3.58;;;;;;;18.31;73.78;99179.50;6200356;28;20042;-73
2023/10/28 10:00:18;;;;;;;4.15;1.60;;;;;;;19.15;72.39;99172.16;6201438;28;20382;-73
2023/10/28 10:03:57;;;;;;;1.35;0.90;;;;;;;19.22;71.33;99169.63;6203053;28;20099;-75
2023/10/28 10:06:57;;;;;;;0.40;0.40;;;;;;;18.76;69.93;99172.03;6209556;28;20090;-75
2023/10/28 10:10:13;;;;;;;0.50;0.43;;;;;;;19.31;69.78;99171.25;6206323;28;20046;-75
2023/10/28 10:13:15;;;;;;;2.00;0.60;;;;;;;19.77;68.36;99170.56;6214119;28;20443;-73
2023/10/28 10:16:52;;;;;;;1.10;0.70;;;;;;;19.81;65.42;99175.34;6213365;28;20107;-76
2023/10/28 10:19:53;;;;;;;0.40;0.30;;;;;;;19.50;64.19;99162.91;6203243;28;20099;-75
2023/10/28 10:23:00;;;;;;;3.83;0.70;;;;;;;19.59;66.42;99165.50;6209102;28;20055;-76
2023/10/28 10:26:01;;;;;;;1.02;0.40;;;;;;;19.51;65.87;99161.91;6194283;28;20421;-76
2023/10/28 10:29:08;;;;;;;3.28;0.80;;;;;;;19.87;65.18;99155.28;6206414;28;20049;-76
2023/10/28 10:32:18;;;;;;;2.35;1.15;;;;;;;20.09;65.92;99145.69;6195346;28;20510;-74
2023/10/28 10:35:33;;;;;;;0.98;0.57;;;;;;;20.21;65.09;99149.56;6194144;28;20057;-73
2023/10/28 10:38:33;;;;;;;1.83;0.80;;;;;;;19.99;67.15;99151.22;6195123;28;20455;-76
2023/10/28 10:41:34;;;;;;;1.35;0.50;;;;;;;19.83;67.52;99144.22;6195000;28;20050;-73
2023/10/28 10:44:36;;;;;;;0.65;0.40;;;;;;;19.72;68.08;99153.38;6195304;28;20057;-73
2023/10/28 10:47:38;;;;;;;0.43;0.30;;;;;;;19.21;68.52;99154.75;6193943;28;20061;-73
2023/10/28 10:50:40;;;;;;;0.73;0.63;;;;;;;18.93;70.44;99160.47;6195220;28;20054;-73
2023/10/28 10:53:42;;;;;;;;;;;;;;;18.59;72.46;99168.59;6205236;28;20053;-75
2023/10/28 10:56:44;;;;;;;0.60;0.43;;;;;;;18.43;71.21;99167.63;6203018;28;19925;-76
2023/10/28 10:59:45;;;;;;;1.67;0.40;;;;;;;18.50;72.86;99175.69;6203733;28;20046;-73
2023/10/28 11:02:48;;;;;;;0.17;0.17;;;;;;;18.59;70.64;99179.16;6201999;28;20058;-72
2023/10/28 11:05:51;;;;;;;0.32;0.30;;;;;;;18.75;71.24;99180.94;6208045;28;20103;-73
2023/10/28 11:08:51;;;;;;;1.30;0.40;;;;;;;19.04;70.36;99160.09;6206223;28;20050;-73
2023/10/28 11:11:53;;;;;;;0.47;0.43;;;;;;;18.74;71.19;99166.94;6204327;28;20107;-73
2023/10/28 11:14:54;;;;;;;0.73;0.57;;;;;;;18.92;71.46;99167.59;6193428;28;20054;-73
2023/10/28 11:17:58;;;;;;;0.60;0.52;;;;;;;19.15;72.03;99163.38;6194858;28;20548;-73
2023/10/28 11:21:01;;;;;;;0.60;0.50;;;;;;;19.16;70.99;99157.09;6192714;28;20354;-74
2023/10/28 11:24:04;;;;;;;0.88;0.60;;;;;;;18.76;72.85;99157.00;6193349;28;20058;-73
2023/10/28 11:27:06;;;;;;;0.57;0.55;;;;;;;18.55;72.30;99172.53;6194090;28;20512;-74
2023/10/28 11:30:08;;;;;;;2.22;0.68;;;;;;;18.45;72.41;99164.78;6196758;28;20741;-73
2023/10/28 11:33:09;;;;;;;2.38;0.70;;;;;;;18.41;73.93;99169.59;6209393;28;20463;-73
2023/10/28 11:36:09;;;;;;;0.40;0.40;;;;;;;18.23;73.85;99161.81;6210298;28;20058;-73
2023/10/28 11:39:14;;;;;;;0.65;0.35;;;;;;;18.11;73.06;99168.41;6210977;28;20505;-76
2023/10/28 11:42:18;;;;;;;0.32;0.32;;;;;;;18.01;73.41;99171.22;6199539;28;20065;-75
2023/10/28 11:45:20;;;;;;;1.77;0.52;;;;;;;17.85;75.19;99165.91;6212524;28;20080;-76
2023/10/28 11:48:21;;;;;;;1.30;0.50;;;;;;;17.67;79.86;99166.81;6296534;28;20064;-76
2023/10/28 11:51:23;;;;;;;2.03;0.83;;;;;;;17.46;82.92;99171.69;6210215;28;20199;-76
2023/10/28 11:54:26;;;;;;;5.57;0.73;;;;;;;16.96;87.90;99175.91;6195219;28;20061;-74
2023/10/28 11:57:27;;;;;;;4.80;0.82;;;;;;;16.86;89.28;99176.03;6203352;28;20050;-75
2023/10/28 12:00:28;;;;;;;7.32;1.02;;;;;;;16.51;90.95;99176.88;6205588;28;20082;-77
2023/10/28 12:03:29;;;;;;;1.70;0.65;;;;;;;16.41;91.34;99174.38;6197001;28;20054;-77
2023/10/28 12:06:31;;;;;;;8.90;1.73;;;;;;;16.23;93.44;99170.94;6216660;28;20413;-77
2023/10/28 12:09:35;;;;;;;6.15;1.40;;;;;;;16.10;95.63;99169.50;6346035;28;20048;-77
2023/10/28 12:12:36;;;;;;;6.07;1.27;;;;;;;16.06;97.75;99169.94;6244825;28;20082;-76
2023/10/28 12:15:40;;;;;;;1.08;0.80;;;;;;;16.28;98.50;99176.53;6192599;28;20051;-76
2023/10/28 12:18:42;;;;;;;12.68;1.55;;;;;;;16.47;98.71;99165.00;6193727;28;20046;-76
2023/10/28 12:21:43;;;;;;;8.73;1.98;;;;;;;16.72;99.20;99166.84;6216447;28;20099;-76
2023/10/28 12:24:44;;;;;;;3.33;1.20;;;;;;;16.97;99.45;99171.50;6213088;28;20073;-77
2023/10/28 12:27:49;;;;;;;11.03;1.50;;;;;;;17.17;99.19;99164.97;6217449;28;20049;-77
2023/10/28 12:30:54;;;;;;;3.60;0.70;;;;;;;17.20;100.00;99162.03;6196350;28;20387;-76
2023/10/28 12:33:55;;;;;;;1.55;0.40;;;;;;;17.32;96.96;99163.41;6200356;28;20053;-77
2023/10/28 12:36:57;;;;;;;0.28;0.28;;;;;;;17.43;98.10;99162.28;6219529;28;20129;-76
2023/10/28 12:39:58;;;;;;;;;;;;;;;17.33;94.60;99165.06;6220924;28;20079;-76
2023/10/28 12:43:01;;;;;;;0.52;0.40;;;;;;;17.28;92.31;99156.81;6221540;28;19995;-75
2023/10/28 12:46:03;;;;;;;0.22;0.20;;;;;;;17.25;88.53;99145.75;6220434;28;20094;-76
2023/10/28 12:49:05;;;;;;;0.17;0.17;;;;;;;17.14;88.57;99148.66;6221431;28;20137;-75
2023/10/28 12:52:06;;;;;;;;;;;;;;;17.16;90.00;99150.16;6220800;28;20054;-75
2023/10/28 12:55:12;;;;;;;0.43;0.40;;;;;;;17.16;90.05;99160.69;6220231;28;19983;-76
2023/10/28 12:58:13;;;;;;;0.32;0.20;;;;;;;17.00;88.69;99164.06;6220332;28;20564;-76
2023/10/28 13:01:14;;;;;;;3.83;0.50;;;;;;;16.99;90.85;99165.06;6219928;28;20049;-75
2023/10/28 13:04:17;;;;;;;0.20;0.20;;;;;;;16.85;90.05;99170.91;6220176;28;20058;-75
2023/10/28 13:07:20;;;;;;;1.02;0.50;;;;;;;16.59;90.95;99168.22;6221074;28;20062;-75
2023/10/28 13:10:20;;;;;;;0.55;0.40;;;;;;;16.74;91.31;99161.44;6221118;28;20053;-75
2023/10/28 13:13:22;;;;;;;1.83;0.47;;;;;;;16.47;90.30;99162.38;6219792;28;20050;-75
2023/10/28 13:16:23;;;;;;;0.80;0.38;;;;;;;16.67;90.75;99157.75;6219820;28;20128;-76
2023/10/28 13:19:29;;;;;;;0.60;0.60;;;;;;;16.66;90.12;99164.03;6221031;28;20512;-75
2023/10/28 13:22:30;;;;;;;1.75;0.40;;;;;;;16.63;89.47;99166.94;6220797;28;20556;-75
2023/10/28 13:25:31;;;;;;;0.57;0.40;;;;;;;16.61;91.27;99163.63;6220945;28;20057;-75
2023/10/28 13:28:32;;;;;;;5.75;0.40;;;;;;;16.69;90.23;99167.16;6220585;28;20828;-75
2023/10/28 13:31:33;;;;;;;0.57;0.30;;;;;;;16.85;90.86;99170.91;6220724;28;20050;-75
2023/10/28 13:34:36;;;;;;;0.38;0.30;;;;;;;16.79;87.72;99172.31;6219541;28;20133;-76
2023/10/28 13:37:38;;;;;;;0.40;0.20;;;;;;;16.80;88.80;99174.00;6220805;28;20137;-76
2023/10/28 13:40:39;;;;;;;3.30;0.52;;;;;;;16.88;88.56;99175.84;6220781;28;20095;-76
2023/10/28 13:43:42;;;;;;;1.70;0.47;;;;;;;16.80;89.37;99179.25;6220385;28;20137;-74
2023/10/28 13:46:43;;;;;;;4.47;2.05;;;;;;;16.84;90.37;99178.00;6220562;28;20060;-75
2023/10/28 13:49:45;;;;;;;9.23;3.58;;;;;;;16.79;91.01;99177.59;6219004;28;20050;-75
2023/10/28 13:52:48;;;;;;;12.63;5.47;;;;;;;16.82;92.20;99187.03;6220152;28;20054;-75
2023/10/28 13:55:50;;;;;;;5.70;3.20;;;;;;;16.67;92.70;99181.47;6220247;28;20513;-76
2023/10/28 13:58:53;;;;;;;7.05;4.43;;;;;;;16.60;92.14;99176.00;6219252;28;20045;-76
2023/10/28 14:01:53;;;;;;;2.78;2.05;;;;;;;16.42;91.43;99175.19;6218753;28;20404;-74
2023/10/28 14:04:54;;;;;;;2.03;1.60;;;;;;;16.56;92.02;99179.09;6220235;28;20050;-74
2023/10/28 14:07:55;;;;;;;1.02;0.88;;;;;;;16.52;91.31;99174.13;6218983;28;20057;-74
2023/10/28 14:10:56;;;;;;;1.17;1.02;;;;;;;16.54;91.97;99166.06;6220135;28;20049;-76
2023/10/28 14:14:00;;;;;;;3.20;0.85;;;;;;;16.45;92.47;99162.56;6218746;28;20103;-75